Airfield :
LOGIN :

Register | Disclaimer

   EN    FR    IT 

 










Legend :    VFR   Marginal VFR   IFR   Intensive IFR   Very Intensive IFR
Visi :
Ceiling :
>= 8 km
>= 3000ft
5 to 8 km
1000 to 3000 ft
1500m to 5 km
500 to 1000 ft
800 to 1500m
200 to 500 ft
< 800m
< 200 ft
Symbols :   Thunderstorms  Fog  Heavy snow  Heavy precipitations  Wind > 20 kt
SIGMETs :     Misc.  Thunderstorms  Icing  Turbulence  Mountain Waves  Volcanic Ashes







- Airport Elevation : 38 ft
- IATA code : ADX


EGQL - RAF Leuchars

CURRENT METAR :
  • 200250Z 14011KT 9000 RA SCT006 BKN013 05/05 Q1011 YLO1

EXPIRED METARs :
  • 200150Z 11009KT 9999 RA FEW008 BKN017 BKN032 05/04 Q1013 WHT
  • 200050Z 12006KT 9999 RA SCT021 SCT028 BKN042 04/04 Q1014 WHT

TAF TAF EGQL
Valid from the 20 at 03:00 until the 20 at 12:00 UTC


200142Z 2003/2012 13008KT 9999 -RA BKN025
TEMPO 2003/2012 4500 +RA SCT010 OVC018
PROB30
TEMPO 2003/2012 3000 RADZ SCT005 BKN008
No reported NOTAMs for that airfield.
2 SIGMETs reported for the Scottish FIR (EGPX) :
 
Severe icing
EGPX SIGMET 02 VALID 200400/200800 EGRR
EGPX SCOTTISH FIR SEV ICE FCST WI N5858 W00421 - N5640 E00052 - N5603 W00047 - N5827 W00643 - N5858 W00421 FL030/100 STNR NC=
Severe icing
EGPX SIGMET 01 VALID 200001/200400 EGRR
EGPX SCOTTISH FIR SEV ICE FCST WI N5534 W00137 - N5817 W00712 - N5857 W00622 - N5555 E00052 - N5534 W00137 FL030/100 MOV NE 10KT NC=



MET'MAP, your aeronautical weather chart ! - Copyright ORBIFLY December 2007 - Disclaimer

ORBIFLY MET'MAP TEAM :

Programming & Development : Alexandra Zaïnal
Concept & Development : Baudouin d'Aumeries
Co-Development & Prog : Marc-Olivier Méhu
Technical & hardware support : Manuel Goepfert

Contact : metmap@orbifly.com




SOURCES & CREDITS :

   NOAA